sensor_id;sensor_type;location;lat;lon;timestamp;P1;durP1;ratioP1;P2;durP2;ratioP2
75417;SDS011;63997;52.112;5.420;2023-12-14T00:01:38;10.80;;;6.40;;
75417;SDS011;63997;52.112;5.420;2023-12-14T00:04:07;10.40;;;6.00;;
75417;SDS011;63997;52.112;5.420;2023-12-14T00:06:34;12.15;;;6.28;;
75417;SDS011;63997;52.112;5.420;2023-12-14T00:09:01;11.45;;;5.55;;
75417;SDS011;63997;52.112;5.420;2023-12-14T00:11:39;13.75;;;6.32;;
75417;SDS011;63997;52.112;5.420;2023-12-14T00:14:06;13.05;;;6.72;;
75417;SDS011;63997;52.112;5.420;2023-12-14T00:16:32;13.67;;;6.70;;
75417;SDS011;63997;52.112;5.420;2023-12-14T00:18:59;11.20;;;6.63;;
75417;SDS011;63997;52.112;5.420;2023-12-14T00:24:11;13.63;;;6.80;;
75417;SDS011;63997;52.112;5.420;2023-12-14T00:26:38;13.52;;;6.78;;
75417;SDS011;63997;52.112;5.420;2023-12-14T00:29:04;11.93;;;6.87;;
75417;SDS011;63997;52.112;5.420;2023-12-14T00:34:20;11.82;;;6.70;;
75417;SDS011;63997;52.112;5.420;2023-12-14T00:36:46;11.32;;;6.40;;
75417;SDS011;63997;52.112;5.420;2023-12-14T00:39:13;11.52;;;6.40;;
75417;SDS011;63997;52.112;5.420;2023-12-14T00:41:45;11.73;;;5.90;;
75417;SDS011;63997;52.112;5.420;2023-12-14T00:44:12;10.18;;;5.90;;
75417;SDS011;63997;52.112;5.420;2023-12-14T00:46:39;10.90;;;6.18;;
75417;SDS011;63997;52.112;5.420;2023-12-14T00:49:05;10.00;;;5.95;;
75417;SDS011;63997;52.112;5.420;2023-12-14T00:51:32;9.77;;;6.38;;
75417;SDS011;63997;52.112;5.420;2023-12-14T00:53:59;9.97;;;5.77;;
75417;SDS011;63997;52.112;5.420;2023-12-14T00:56:25;7.72;;;5.47;;
75417;SDS011;63997;52.112;5.420;2023-12-14T00:58:52;11.57;;;5.93;;
75417;SDS011;63997;52.112;5.420;2023-12-14T01:04:13;8.50;;;5.70;;
75417;SDS011;63997;52.112;5.420;2023-12-14T01:06:39;9.67;;;6.13;;
75417;SDS011;63997;52.112;5.420;2023-12-14T01:09:06;8.85;;;5.80;;
75417;SDS011;63997;52.112;5.420;2023-12-14T01:11:34;9.00;;;5.47;;
75417;SDS011;63997;52.112;5.420;2023-12-14T01:14:01;9.93;;;6.10;;
75417;SDS011;63997;52.112;5.420;2023-12-14T01:16:27;7.85;;;5.25;;
75417;SDS011;63997;52.112;5.420;2023-12-14T01:18:54;9.80;;;5.70;;
75417;SDS011;63997;52.112;5.420;2023-12-14T01:21:21;10.85;;;6.00;;
75417;SDS011;63997;52.112;5.420;2023-12-14T01:23:47;9.80;;;5.65;;
75417;SDS011;63997;52.112;5.420;2023-12-14T01:26:15;10.25;;;5.82;;
75417;SDS011;63997;52.112;5.420;2023-12-14T01:28:41;8.90;;;5.85;;
75417;SDS011;63997;52.112;5.420;2023-12-14T01:31:12;9.03;;;5.70;;
75417;SDS011;63997;52.112;5.420;2023-12-14T01:33:39;9.15;;;5.85;;
75417;SDS011;63997;52.112;5.420;2023-12-14T01:36:05;10.13;;;6.45;;
75417;SDS011;63997;52.112;5.420;2023-12-14T01:38:32;8.30;;;5.90;;
75417;SDS011;63997;52.112;5.420;2023-12-14T01:40:58;10.05;;;6.13;;
75417;SDS011;63997;52.112;5.420;2023-12-14T01:43:25;8.53;;;5.43;;
75417;SDS011;63997;52.112;5.420;2023-12-14T01:45:52;9.15;;;5.82;;
75417;SDS011;63997;52.112;5.420;2023-12-14T01:48:18;10.10;;;5.55;;
75417;SDS011;63997;52.112;5.420;2023-12-14T01:50:45;9.38;;;5.95;;
75417;SDS011;63997;52.112;5.420;2023-12-14T01:53:11;8.75;;;5.50;;
75417;SDS011;63997;52.112;5.420;2023-12-14T01:55:38;9.83;;;6.13;;
75417;SDS011;63997;52.112;5.420;2023-12-14T01:58:05;11.30;;;5.97;;
75417;SDS011;63997;52.112;5.420;2023-12-14T02:03:01;8.32;;;5.57;;
75417;SDS011;63997;52.112;5.420;2023-12-14T02:05:27;11.85;;;6.78;;
75417;SDS011;63997;52.112;5.420;2023-12-14T02:07:54;10.10;;;6.03;;
75417;SDS011;63997;52.112;5.420;2023-12-14T02:10:39;9.23;;;6.45;;
75417;SDS011;63997;52.112;5.420;2023-12-14T02:13:06;8.57;;;6.22;;
75417;SDS011;63997;52.112;5.420;2023-12-14T02:15:33;9.70;;;5.80;;
75417;SDS011;63997;52.112;5.420;2023-12-14T02:18:00;9.65;;;6.00;;
75417;SDS011;63997;52.112;5.420;2023-12-14T02:20:32;8.93;;;5.40;;
75417;SDS011;63997;52.112;5.420;2023-12-14T02:22:59;8.77;;;6.03;;
75417;SDS011;63997;52.112;5.420;2023-12-14T02:25:25;10.38;;;6.30;;
75417;SDS011;63997;52.112;5.420;2023-12-14T02:27:52;9.10;;;5.82;;
75417;SDS011;63997;52.112;5.420;2023-12-14T02:33:18;12.77;;;6.33;;
75417;SDS011;63997;52.112;5.420;2023-12-14T02:35:44;7.80;;;5.68;;
75417;SDS011;63997;52.112;5.420;2023-12-14T02:38:11;9.23;;;5.70;;
75417;SDS011;63997;52.112;5.420;2023-12-14T02:40:39;8.38;;;5.50;;
75417;SDS011;63997;52.112;5.420;2023-12-14T02:43:06;8.27;;;5.55;;
75417;SDS011;63997;52.112;5.420;2023-12-14T02:45:32;8.63;;;5.63;;
75417;SDS011;63997;52.112;5.420;2023-12-14T02:47:59;9.98;;;6.38;;
75417;SDS011;63997;52.112;5.420;2023-12-14T02:53:12;7.97;;;5.50;;
75417;SDS011;63997;52.112;5.420;2023-12-14T02:55:39;8.85;;;6.22;;
75417;SDS011;63997;52.112;5.420;2023-12-14T02:58:05;11.07;;;6.47;;
75417;SDS011;63997;52.112;5.420;2023-12-14T03:00:32;9.73;;;6.47;;
75417;SDS011;63997;52.112;5.420;2023-12-14T03:02:58;11.07;;;6.82;;
75417;SDS011;63997;52.112;5.420;2023-12-14T03:05:25;11.48;;;6.47;;
75417;SDS011;63997;52.112;5.420;2023-12-14T03:07:51;10.00;;;6.53;;
75417;SDS011;63997;52.112;5.420;2023-12-14T03:13:07;11.63;;;5.72;;
75417;SDS011;63997;52.112;5.420;2023-12-14T03:15:34;10.40;;;6.38;;
75417;SDS011;63997;52.112;5.420;2023-12-14T03:18:00;8.80;;;5.93;;
75417;SDS011;63997;52.112;5.420;2023-12-14T03:20:29;9.05;;;6.35;;
75417;SDS011;63997;52.112;5.420;2023-12-14T03:22:56;17.87;;;6.73;;
75417;SDS011;63997;52.112;5.420;2023-12-14T03:25:23;9.93;;;6.57;;
75417;SDS011;63997;52.112;5.420;2023-12-14T03:27:49;12.85;;;6.25;;
75417;SDS011;63997;52.112;5.420;2023-12-14T03:32:47;9.98;;;6.78;;
75417;SDS011;63997;52.112;5.420;2023-12-14T03:35:14;9.73;;;6.60;;
75417;SDS011;63997;52.112;5.420;2023-12-14T03:37:40;9.40;;;5.88;;
75417;SDS011;63997;52.112;5.420;2023-12-14T03:40:16;9.88;;;6.55;;
75417;SDS011;63997;52.112;5.420;2023-12-14T03:42:42;10.18;;;6.00;;
75417;SDS011;63997;52.112;5.420;2023-12-14T03:45:09;9.55;;;6.50;;
75417;SDS011;63997;52.112;5.420;2023-12-14T03:47:36;11.00;;;6.57;;
75417;SDS011;63997;52.112;5.420;2023-12-14T03:50:03;13.60;;;6.40;;
75417;SDS011;63997;52.112;5.420;2023-12-14T03:52:30;11.52;;;7.30;;
75417;SDS011;63997;52.112;5.420;2023-12-14T03:54:58;10.07;;;6.57;;
75417;SDS011;63997;52.112;5.420;2023-12-14T03:57:24;9.75;;;6.15;;
75417;SDS011;63997;52.112;5.420;2023-12-14T03:59:51;11.70;;;6.20;;
75417;SDS011;63997;52.112;5.420;2023-12-14T04:02:25;13.38;;;6.78;;
75417;SDS011;63997;52.112;5.420;2023-12-14T04:04:52;10.85;;;6.25;;
75417;SDS011;63997;52.112;5.420;2023-12-14T04:07:18;11.77;;;7.03;;
75417;SDS011;63997;52.112;5.420;2023-12-14T04:09:45;14.10;;;7.22;;
75417;SDS011;63997;52.112;5.420;2023-12-14T04:12:22;11.67;;;6.10;;
75417;SDS011;63997;52.112;5.420;2023-12-14T04:14:49;11.30;;;6.80;;
75417;SDS011;63997;52.112;5.420;2023-12-14T04:17:16;12.32;;;6.35;;
75417;SDS011;63997;52.112;5.420;2023-12-14T04:19:42;11.93;;;6.72;;
75417;SDS011;63997;52.112;5.420;2023-12-14T04:24:56;11.23;;;6.80;;
75417;SDS011;63997;52.112;5.420;2023-12-14T04:27:22;11.02;;;6.55;;
75417;SDS011;63997;52.112;5.420;2023-12-14T04:29:53;11.50;;;6.28;;
75417;SDS011;63997;52.112;5.420;2023-12-14T04:32:19;11.68;;;5.63;;
75417;SDS011;63997;52.112;5.420;2023-12-14T04:34:46;9.73;;;5.85;;
75417;SDS011;63997;52.112;5.420;2023-12-14T04:37:12;10.60;;;5.50;;
75417;SDS011;63997;52.112;5.420;2023-12-14T04:39:38;10.98;;;5.57;;
75417;SDS011;63997;52.112;5.420;2023-12-14T04:42:07;12.57;;;5.22;;
75417;SDS011;63997;52.112;5.420;2023-12-14T04:44:34;11.52;;;5.60;;
75417;SDS011;63997;52.112;5.420;2023-12-14T04:47:00;12.10;;;6.93;;
75417;SDS011;63997;52.112;5.420;2023-12-14T04:49:27;10.67;;;5.97;;
75417;SDS011;63997;52.112;5.420;2023-12-14T04:51:53;10.88;;;5.40;;
75417;SDS011;63997;52.112;5.420;2023-12-14T04:54:20;8.60;;;5.47;;
75417;SDS011;63997;52.112;5.420;2023-12-14T04:56:46;8.43;;;5.30;;
75417;SDS011;63997;52.112;5.420;2023-12-14T04:59:13;8.88;;;4.88;;
75417;SDS011;63997;52.112;5.420;2023-12-14T05:01:39;6.87;;;4.50;;
75417;SDS011;63997;52.112;5.420;2023-12-14T05:04:06;10.93;;;5.63;;
75417;SDS011;63997;52.112;5.420;2023-12-14T05:06:33;8.60;;;5.35;;
75417;SDS011;63997;52.112;5.420;2023-12-14T05:09:00;10.07;;;5.90;;
75417;SDS011;63997;52.112;5.420;2023-12-14T05:11:31;10.38;;;5.40;;
75417;SDS011;63997;52.112;5.420;2023-12-14T05:13:58;6.77;;;4.63;;
75417;SDS011;63997;52.112;5.420;2023-12-14T05:16:24;8.38;;;4.57;;
75417;SDS011;63997;52.112;5.420;2023-12-14T05:18:54;7.50;;;5.18;;
75417;SDS011;63997;52.112;5.420;2023-12-14T05:21:22;9.45;;;5.43;;
75417;SDS011;63997;52.112;5.420;2023-12-14T05:23:49;7.60;;;4.93;;
75417;SDS011;63997;52.112;5.420;2023-12-14T05:26:15;9.33;;;5.10;;
75417;SDS011;63997;52.112;5.420;2023-12-14T05:28:42;7.32;;;4.68;;
75417;SDS011;63997;52.112;5.420;2023-12-14T05:31:09;6.35;;;4.72;;
75417;SDS011;63997;52.112;5.420;2023-12-14T05:33:39;13.40;;;4.85;;
75417;SDS011;63997;52.112;5.420;2023-12-14T05:36:06;8.40;;;5.20;;
75417;SDS011;63997;52.112;5.420;2023-12-14T05:38:40;10.23;;;5.00;;
75417;SDS011;63997;52.112;5.420;2023-12-14T05:41:08;8.88;;;5.03;;
75417;SDS011;63997;52.112;5.420;2023-12-14T05:43:34;11.70;;;4.80;;
75417;SDS011;63997;52.112;5.420;2023-12-14T05:46:02;8.60;;;4.50;;
75417;SDS011;63997;52.112;5.420;2023-12-14T05:48:30;10.40;;;4.28;;
75417;SDS011;63997;52.112;5.420;2023-12-14T05:50:56;6.43;;;3.97;;
75417;SDS011;63997;52.112;5.420;2023-12-14T05:53:23;8.30;;;3.63;;
75417;SDS011;63997;52.112;5.420;2023-12-14T05:55:50;7.47;;;4.65;;
75417;SDS011;63997;52.112;5.420;2023-12-14T05:58:16;11.30;;;4.18;;
75417;SDS011;63997;52.112;5.420;2023-12-14T06:00:43;7.85;;;4.03;;
75417;SDS011;63997;52.112;5.420;2023-12-14T06:03:09;9.23;;;4.90;;
75417;SDS011;63997;52.112;5.420;2023-12-14T06:05:36;7.63;;;4.15;;
75417;SDS011;63997;52.112;5.420;2023-12-14T06:08:03;7.25;;;4.20;;
75417;SDS011;63997;52.112;5.420;2023-12-14T06:10:30;6.85;;;4.18;;
75417;SDS011;63997;52.112;5.420;2023-12-14T06:12:58;5.88;;;3.65;;
75417;SDS011;63997;52.112;5.420;2023-12-14T06:15:25;9.27;;;4.40;;
75417;SDS011;63997;52.112;5.420;2023-12-14T06:17:51;8.15;;;4.40;;
75417;SDS011;63997;52.112;5.420;2023-12-14T06:20:19;7.05;;;3.95;;
75417;SDS011;63997;52.112;5.420;2023-12-14T06:22:45;7.13;;;4.22;;
75417;SDS011;63997;52.112;5.420;2023-12-14T06:25:12;6.50;;;4.10;;
75417;SDS011;63997;52.112;5.420;2023-12-14T06:27:39;5.23;;;3.70;;
75417;SDS011;63997;52.112;5.420;2023-12-14T06:30:06;6.47;;;3.90;;
75417;SDS011;63997;52.112;5.420;2023-12-14T06:32:35;7.30;;;4.03;;
75417;SDS011;63997;52.112;5.420;2023-12-14T06:35:02;5.22;;;3.58;;
75417;SDS011;63997;52.112;5.420;2023-12-14T06:37:29;6.10;;;3.63;;
75417;SDS011;63997;52.112;5.420;2023-12-14T06:39:56;6.00;;;3.60;;
75417;SDS011;63997;52.112;5.420;2023-12-14T06:42:22;6.97;;;3.42;;
75417;SDS011;63997;52.112;5.420;2023-12-14T06:44:49;8.88;;;4.25;;
75417;SDS011;63997;52.112;5.420;2023-12-14T06:47:15;5.72;;;3.75;;
75417;SDS011;63997;52.112;5.420;2023-12-14T06:49:42;9.85;;;4.00;;
75417;SDS011;63997;52.112;5.420;2023-12-14T06:52:09;7.63;;;3.83;;
75417;SDS011;63997;52.112;5.420;2023-12-14T06:54:35;6.28;;;4.30;;
75417;SDS011;63997;52.112;5.420;2023-12-14T06:57:02;8.18;;;4.20;;
75417;SDS011;63997;52.112;5.420;2023-12-14T06:59:28;6.45;;;4.40;;
75417;SDS011;63997;52.112;5.420;2023-12-14T07:02:06;5.15;;;3.20;;
75417;SDS011;63997;52.112;5.420;2023-12-14T07:04:33;6.60;;;4.13;;
75417;SDS011;63997;52.112;5.420;2023-12-14T07:07:00;8.95;;;4.15;;
75417;SDS011;63997;52.112;5.420;2023-12-14T07:09:26;8.07;;;4.40;;
75417;SDS011;63997;52.112;5.420;2023-12-14T07:14:27;6.97;;;3.50;;
75417;SDS011;63997;52.112;5.420;2023-12-14T07:16:54;5.70;;;3.70;;
75417;SDS011;63997;52.112;5.420;2023-12-14T07:19:20;6.55;;;4.00;;
75417;SDS011;63997;52.112;5.420;2023-12-14T07:21:53;6.90;;;4.20;;
75417;SDS011;63997;52.112;5.420;2023-12-14T07:24:19;6.68;;;3.45;;
75417;SDS011;63997;52.112;5.420;2023-12-14T07:26:46;4.75;;;3.35;;
75417;SDS011;63997;52.112;5.420;2023-12-14T07:29:12;7.63;;;4.03;;
75417;SDS011;63997;52.112;5.420;2023-12-14T07:31:45;6.80;;;4.25;;
75417;SDS011;63997;52.112;5.420;2023-12-14T07:34:11;6.85;;;4.35;;
75417;SDS011;63997;52.112;5.420;2023-12-14T07:36:38;6.53;;;4.05;;
75417;SDS011;63997;52.112;5.420;2023-12-14T07:39:05;6.68;;;4.53;;
75417;SDS011;63997;52.112;5.420;2023-12-14T07:44:02;6.32;;;3.90;;
75417;SDS011;63997;52.112;5.420;2023-12-14T07:46:32;7.55;;;4.68;;
75417;SDS011;63997;52.112;5.420;2023-12-14T07:48:59;9.30;;;4.85;;
75417;SDS011;63997;52.112;5.420;2023-12-14T07:51:34;9.30;;;4.18;;
75417;SDS011;63997;52.112;5.420;2023-12-14T07:54:01;6.87;;;4.53;;
75417;SDS011;63997;52.112;5.420;2023-12-14T07:56:29;7.00;;;4.35;;
75417;SDS011;63997;52.112;5.420;2023-12-14T07:58:56;7.50;;;4.25;;
75417;SDS011;63997;52.112;5.420;2023-12-14T08:01:23;5.55;;;3.58;;
75417;SDS011;63997;52.112;5.420;2023-12-14T08:03:49;6.47;;;4.13;;
75417;SDS011;63997;52.112;5.420;2023-12-14T08:06:16;5.10;;;3.47;;
75417;SDS011;63997;52.112;5.420;2023-12-14T08:08:42;7.82;;;3.88;;
75417;SDS011;63997;52.112;5.420;2023-12-14T08:13:43;5.43;;;3.85;;
75417;SDS011;63997;52.112;5.420;2023-12-14T08:16:10;7.75;;;4.25;;
75417;SDS011;63997;52.112;5.420;2023-12-14T08:18:37;9.07;;;4.80;;
75417;SDS011;63997;52.112;5.420;2023-12-14T08:21:12;7.68;;;4.57;;
75417;SDS011;63997;52.112;5.420;2023-12-14T08:23:39;8.70;;;4.95;;
75417;SDS011;63997;52.112;5.420;2023-12-14T08:26:06;7.35;;;4.53;;
75417;SDS011;63997;52.112;5.420;2023-12-14T08:28:34;5.40;;;4.13;;
75417;SDS011;63997;52.112;5.420;2023-12-14T08:31:01;6.93;;;4.47;;
75417;SDS011;63997;52.112;5.420;2023-12-14T08:33:29;9.73;;;4.35;;
75417;SDS011;63997;52.112;5.420;2023-12-14T08:35:56;5.90;;;4.00;;
75417;SDS011;63997;52.112;5.420;2023-12-14T08:38:23;9.57;;;4.75;;
75417;SDS011;63997;52.112;5.420;2023-12-14T08:40:51;6.28;;;4.25;;
75417;SDS011;63997;52.112;5.420;2023-12-14T08:43:19;7.93;;;4.33;;
75417;SDS011;63997;52.112;5.420;2023-12-14T08:45:48;7.57;;;4.32;;
75417;SDS011;63997;52.112;5.420;2023-12-14T08:48:15;6.15;;;3.90;;
75417;SDS011;63997;52.112;5.420;2023-12-14T08:50:47;6.97;;;4.07;;
75417;SDS011;63997;52.112;5.420;2023-12-14T08:53:14;7.70;;;4.85;;
75417;SDS011;63997;52.112;5.420;2023-12-14T08:55:41;5.40;;;3.90;;
75417;SDS011;63997;52.112;5.420;2023-12-14T08:58:07;10.40;;;5.20;;
75417;SDS011;63997;52.112;5.420;2023-12-14T09:00:35;6.78;;;4.07;;
75417;SDS011;63997;52.112;5.420;2023-12-14T09:03:01;6.10;;;4.53;;
75417;SDS011;63997;52.112;5.420;2023-12-14T09:05:28;5.72;;;4.35;;
75417;SDS011;63997;52.112;5.420;2023-12-14T09:07:55;7.13;;;4.23;;
75417;SDS011;63997;52.112;5.420;2023-12-14T09:10:24;5.57;;;3.97;;
75417;SDS011;63997;52.112;5.420;2023-12-14T09:12:50;6.63;;;4.82;;
75417;SDS011;63997;52.112;5.420;2023-12-14T09:15:17;6.78;;;4.80;;
75417;SDS011;63997;52.112;5.420;2023-12-14T09:17:43;7.57;;;5.32;;
75417;SDS011;63997;52.112;5.420;2023-12-14T09:20:10;7.20;;;4.80;;
75417;SDS011;63997;52.112;5.420;2023-12-14T09:22:38;8.55;;;4.57;;
75417;SDS011;63997;52.112;5.420;2023-12-14T09:25:04;7.40;;;4.78;;
75417;SDS011;63997;52.112;5.420;2023-12-14T09:27:31;8.15;;;4.13;;
75417;SDS011;63997;52.112;5.420;2023-12-14T09:29:58;10.40;;;5.75;;
75417;SDS011;63997;52.112;5.420;2023-12-14T09:32:25;6.93;;;4.57;;
75417;SDS011;63997;52.112;5.420;2023-12-14T09:34:52;8.18;;;4.43;;
75417;SDS011;63997;52.112;5.420;2023-12-14T09:37:22;7.85;;;4.38;;
75417;SDS011;63997;52.112;5.420;2023-12-14T09:39:49;6.97;;;4.68;;
75417;SDS011;63997;52.112;5.420;2023-12-14T09:42:20;7.15;;;4.72;;
75417;SDS011;63997;52.112;5.420;2023-12-14T09:44:51;6.33;;;4.53;;
75417;SDS011;63997;52.112;5.420;2023-12-14T09:47:19;8.80;;;4.40;;
75417;SDS011;63997;52.112;5.420;2023-12-14T09:49:46;11.15;;;5.13;;
75417;SDS011;63997;52.112;5.420;2023-12-14T09:52:15;6.82;;;4.20;;
75417;SDS011;63997;52.112;5.420;2023-12-14T09:54:42;9.63;;;4.78;;
75417;SDS011;63997;52.112;5.420;2023-12-14T09:57:09;6.67;;;4.70;;
75417;SDS011;63997;52.112;5.420;2023-12-14T09:59:37;7.07;;;4.45;;
75417;SDS011;63997;52.112;5.420;2023-12-14T10:02:09;6.63;;;5.07;;
75417;SDS011;63997;52.112;5.420;2023-12-14T10:04:37;7.80;;;4.65;;
75417;SDS011;63997;52.112;5.420;2023-12-14T10:07:05;8.35;;;4.82;;
75417;SDS011;63997;52.112;5.420;2023-12-14T10:09:34;8.53;;;5.17;;
75417;SDS011;63997;52.112;5.420;2023-12-14T10:12:06;9.82;;;4.95;;
75417;SDS011;63997;52.112;5.420;2023-12-14T10:14:35;6.47;;;4.63;;
75417;SDS011;63997;52.112;5.420;2023-12-14T10:17:16;9.35;;;4.82;;
75417;SDS011;63997;52.112;5.420;2023-12-14T10:19:55;10.85;;;5.03;;
75417;SDS011;63997;52.112;5.420;2023-12-14T10:24:54;8.02;;;4.30;;
75417;SDS011;63997;52.112;5.420;2023-12-14T10:27:22;6.63;;;3.83;;
75417;SDS011;63997;52.112;5.420;2023-12-14T10:29:49;5.75;;;3.92;;
75417;SDS011;63997;52.112;5.420;2023-12-14T10:32:18;6.55;;;4.22;;
75417;SDS011;63997;52.112;5.420;2023-12-14T10:34:45;6.87;;;4.10;;
75417;SDS011;63997;52.112;5.420;2023-12-14T10:37:11;7.25;;;4.15;;
75417;SDS011;63997;52.112;5.420;2023-12-14T10:39:39;6.50;;;4.45;;
75417;SDS011;63997;52.112;5.420;2023-12-14T10:42:12;4.78;;;3.60;;
75417;SDS011;63997;52.112;5.420;2023-12-14T10:44:48;8.20;;;3.90;;
75417;SDS011;63997;52.112;5.420;2023-12-14T10:47:42;7.83;;;4.13;;
75417;SDS011;63997;52.112;5.420;2023-12-14T10:50:13;7.25;;;4.25;;
75417;SDS011;63997;52.112;5.420;2023-12-14T10:52:40;7.28;;;3.88;;
75417;SDS011;63997;52.112;5.420;2023-12-14T10:55:09;7.63;;;4.57;;
75417;SDS011;63997;52.112;5.420;2023-12-14T10:57:39;8.63;;;4.20;;
75417;SDS011;63997;52.112;5.420;2023-12-14T11:00:09;6.43;;;4.10;;
75417;SDS011;63997;52.112;5.420;2023-12-14T11:02:40;8.30;;;4.40;;
75417;SDS011;63997;52.112;5.420;2023-12-14T11:05:12;7.85;;;3.97;;
75417;SDS011;63997;52.112;5.420;2023-12-14T11:07:49;7.40;;;6.38;;
75417;SDS011;63997;52.112;5.420;2023-12-14T11:10:20;7.50;;;3.95;;
75417;SDS011;63997;52.112;5.420;2023-12-14T11:15:27;11.95;;;5.22;;
75417;SDS011;63997;52.112;5.420;2023-12-14T11:20:51;8.95;;;4.22;;
75417;SDS011;63997;52.112;5.420;2023-12-14T11:25:51;8.10;;;3.97;;
75417;SDS011;63997;52.112;5.420;2023-12-14T11:28:30;7.82;;;4.88;;
75417;SDS011;63997;52.112;5.420;2023-12-14T11:30:58;7.22;;;4.57;;
75417;SDS011;63997;52.112;5.420;2023-12-14T11:33:25;7.35;;;4.40;;
75417;SDS011;63997;52.112;5.420;2023-12-14T11:35:53;6.38;;;4.60;;
75417;SDS011;63997;52.112;5.420;2023-12-14T11:38:20;6.43;;;3.97;;
75417;SDS011;63997;52.112;5.420;2023-12-14T11:40:49;5.55;;;4.07;;
75417;SDS011;63997;52.112;5.420;2023-12-14T11:43:16;6.13;;;3.90;;
75417;SDS011;63997;52.112;5.420;2023-12-14T11:45:47;8.40;;;4.55;;
75417;SDS011;63997;52.112;5.420;2023-12-14T11:48:14;6.30;;;3.78;;
75417;SDS011;63997;52.112;5.420;2023-12-14T11:50:41;5.77;;;4.07;;
75417;SDS011;63997;52.112;5.420;2023-12-14T11:53:09;5.82;;;3.83;;
75417;SDS011;63997;52.112;5.420;2023-12-14T11:55:37;5.47;;;3.80;;
75417;SDS011;63997;52.112;5.420;2023-12-14T11:58:06;6.85;;;4.32;;
75417;SDS011;63997;52.112;5.420;2023-12-14T12:00:33;7.95;;;4.78;;
75417;SDS011;63997;52.112;5.420;2023-12-14T12:05:45;9.90;;;4.07;;
75417;SDS011;63997;52.112;5.420;2023-12-14T12:08:17;6.55;;;4.32;;
75417;SDS011;63997;52.112;5.420;2023-12-14T12:10:47;7.57;;;4.32;;
75417;SDS011;63997;52.112;5.420;2023-12-14T12:13:16;7.57;;;4.63;;
75417;SDS011;63997;52.112;5.420;2023-12-14T12:15:45;10.87;;;4.30;;
75417;SDS011;63997;52.112;5.420;2023-12-14T12:18:13;7.40;;;5.00;;
75417;SDS011;63997;52.112;5.420;2023-12-14T12:20:41;6.18;;;4.55;;
75417;SDS011;63997;52.112;5.420;2023-12-14T12:23:07;11.82;;;4.93;;
75417;SDS011;63997;52.112;5.420;2023-12-14T12:25:34;8.80;;;4.65;;
75417;SDS011;63997;52.112;5.420;2023-12-14T12:28:01;6.60;;;4.30;;
75417;SDS011;63997;52.112;5.420;2023-12-14T12:30:32;8.10;;;4.35;;
75417;SDS011;63997;52.112;5.420;2023-12-14T12:33:02;8.07;;;3.95;;
75417;SDS011;63997;52.112;5.420;2023-12-14T12:35:28;6.72;;;4.50;;
75417;SDS011;63997;52.112;5.420;2023-12-14T12:37:57;5.05;;;3.95;;
75417;SDS011;63997;52.112;5.420;2023-12-14T12:40:24;5.80;;;4.00;;
75417;SDS011;63997;52.112;5.420;2023-12-14T12:42:53;5.05;;;4.10;;
75417;SDS011;63997;52.112;5.420;2023-12-14T12:45:20;5.57;;;3.70;;
75417;SDS011;63997;52.112;5.420;2023-12-14T12:47:53;7.03;;;4.03;;
75417;SDS011;63997;52.112;5.420;2023-12-14T12:50:20;4.80;;;3.63;;
75417;SDS011;63997;52.112;5.420;2023-12-14T12:52:47;5.80;;;3.87;;
75417;SDS011;63997;52.112;5.420;2023-12-14T12:55:15;7.00;;;4.15;;
75417;SDS011;63997;52.112;5.420;2023-12-14T12:57:42;6.20;;;3.65;;
75417;SDS011;63997;52.112;5.420;2023-12-14T13:00:09;5.32;;;3.60;;
75417;SDS011;63997;52.112;5.420;2023-12-14T13:02:43;4.57;;;3.72;;
75417;SDS011;63997;52.112;5.420;2023-12-14T13:05:11;5.63;;;3.80;;
75417;SDS011;63997;52.112;5.420;2023-12-14T13:07:44;4.82;;;3.13;;
75417;SDS011;63997;52.112;5.420;2023-12-14T13:10:12;6.60;;;3.17;;
75417;SDS011;63997;52.112;5.420;2023-12-14T13:12:54;7.13;;;3.50;;
75417;SDS011;63997;52.112;5.420;2023-12-14T13:15:21;4.68;;;2.80;;
75417;SDS011;63997;52.112;5.420;2023-12-14T13:17:50;5.60;;;3.53;;
75417;SDS011;63997;52.112;5.420;2023-12-14T13:20:17;4.68;;;2.95;;
75417;SDS011;63997;52.112;5.420;2023-12-14T13:22:44;5.53;;;3.40;;
75417;SDS011;63997;52.112;5.420;2023-12-14T13:25:11;6.03;;;3.47;;
75417;SDS011;63997;52.112;5.420;2023-12-14T13:27:38;4.95;;;3.60;;
75417;SDS011;63997;52.112;5.420;2023-12-14T13:30:05;4.97;;;3.57;;
75417;SDS011;63997;52.112;5.420;2023-12-14T13:32:32;4.75;;;3.15;;
75417;SDS011;63997;52.112;5.420;2023-12-14T13:34:59;4.15;;;2.50;;
75417;SDS011;63997;52.112;5.420;2023-12-14T13:37:26;4.75;;;2.97;;
75417;SDS011;63997;52.112;5.420;2023-12-14T13:39:53;3.92;;;2.95;;
75417;SDS011;63997;52.112;5.420;2023-12-14T13:42:19;4.67;;;3.17;;
75417;SDS011;63997;52.112;5.420;2023-12-14T13:44:46;5.43;;;2.88;;
75417;SDS011;63997;52.112;5.420;2023-12-14T13:47:12;4.90;;;2.72;;
75417;SDS011;63997;52.112;5.420;2023-12-14T13:49:39;6.22;;;2.50;;
75417;SDS011;63997;52.112;5.420;2023-12-14T13:52:06;5.68;;;3.05;;
75417;SDS011;63997;52.112;5.420;2023-12-14T13:54:32;7.13;;;2.70;;
75417;SDS011;63997;52.112;5.420;2023-12-14T13:56:59;3.28;;;2.47;;
75417;SDS011;63997;52.112;5.420;2023-12-14T13:59:25;4.32;;;2.72;;
75417;SDS011;63997;52.112;5.420;2023-12-14T14:01:52;4.80;;;2.78;;
75417;SDS011;63997;52.112;5.420;2023-12-14T14:04:19;4.45;;;2.83;;
75417;SDS011;63997;52.112;5.420;2023-12-14T14:06:46;5.50;;;2.50;;
75417;SDS011;63997;52.112;5.420;2023-12-14T14:09:12;5.25;;;3.03;;
75417;SDS011;63997;52.112;5.420;2023-12-14T14:11:40;4.25;;;2.90;;
75417;SDS011;63997;52.112;5.420;2023-12-14T14:14:12;4.22;;;2.70;;
75417;SDS011;63997;52.112;5.420;2023-12-14T14:16:38;8.70;;;2.97;;
75417;SDS011;63997;52.112;5.420;2023-12-14T14:19:05;5.50;;;2.90;;
75417;SDS011;63997;52.112;5.420;2023-12-14T14:21:32;4.32;;;3.25;;
75417;SDS011;63997;52.112;5.420;2023-12-14T14:23:58;7.75;;;3.72;;
75417;SDS011;63997;52.112;5.420;2023-12-14T14:26:25;4.88;;;3.33;;
75417;SDS011;63997;52.112;5.420;2023-12-14T14:28:52;4.00;;;3.30;;
75417;SDS011;63997;52.112;5.420;2023-12-14T14:31:20;5.90;;;3.20;;
75417;SDS011;63997;52.112;5.420;2023-12-14T14:33:47;7.40;;;4.10;;
75417;SDS011;63997;52.112;5.420;2023-12-14T14:36:14;5.28;;;3.75;;
75417;SDS011;63997;52.112;5.420;2023-12-14T14:38:41;5.30;;;3.42;;
75417;SDS011;63997;52.112;5.420;2023-12-14T14:41:08;7.30;;;4.15;;
75417;SDS011;63997;52.112;5.420;2023-12-14T14:43:34;6.33;;;3.90;;
75417;SDS011;63997;52.112;5.420;2023-12-14T14:46:01;8.73;;;3.90;;
75417;SDS011;63997;52.112;5.420;2023-12-14T14:48:27;5.10;;;3.35;;
75417;SDS011;63997;52.112;5.420;2023-12-14T14:50:54;6.57;;;3.63;;
75417;SDS011;63997;52.112;5.420;2023-12-14T14:53:20;8.55;;;4.80;;
75417;SDS011;63997;52.112;5.420;2023-12-14T14:55:47;8.70;;;5.53;;
75417;SDS011;63997;52.112;5.420;2023-12-14T14:58:19;8.25;;;4.53;;
75417;SDS011;63997;52.112;5.420;2023-12-14T15:00:46;6.88;;;4.55;;
75417;SDS011;63997;52.112;5.420;2023-12-14T15:03:14;7.70;;;4.55;;
75417;SDS011;63997;52.112;5.420;2023-12-14T15:05:40;7.82;;;4.55;;
75417;SDS011;63997;52.112;5.420;2023-12-14T15:08:08;7.93;;;4.77;;
75417;SDS011;63997;52.112;5.420;2023-12-14T15:10:35;9.20;;;4.47;;
75417;SDS011;63997;52.112;5.420;2023-12-14T15:13:01;7.93;;;4.95;;
75417;SDS011;63997;52.112;5.420;2023-12-14T15:15:28;8.48;;;5.43;;
75417;SDS011;63997;52.112;5.420;2023-12-14T15:17:54;7.57;;;4.95;;
75417;SDS011;63997;52.112;5.420;2023-12-14T15:20:22;8.87;;;4.60;;
75417;SDS011;63997;52.112;5.420;2023-12-14T15:22:49;8.88;;;5.32;;
75417;SDS011;63997;52.112;5.420;2023-12-14T15:25:15;9.88;;;5.63;;
75417;SDS011;63997;52.112;5.420;2023-12-14T15:27:43;9.60;;;5.38;;
75417;SDS011;63997;52.112;5.420;2023-12-14T15:30:10;8.32;;;4.53;;
75417;SDS011;63997;52.112;5.420;2023-12-14T15:32:38;8.37;;;5.10;;
75417;SDS011;63997;52.112;5.420;2023-12-14T15:35:05;8.30;;;5.22;;